Time;durP1;ratioP1;P1;durP2;ratioP2;P2;SDS_P1;SDS_P2;PMS_P1;PMS_P2;Temp;Humidity;BMP_temperature;BMP_pressure;BME280_temperature;BME280_humidity;BME280_pressure;Samples;Min_cycle;Max_cycle;Signal;HPM_P1;HPM_P2
2022/12/17 13:11:24;;;;;;;;;;;;;;;-1.38;87.13;102844.13;20531715;28;19969;-68
2022/12/17 13:21:46;;;;;;;;;;;;;;;-1.35;86.54;102823.97;20523766;28;19958;-68
2022/12/17 13:32:14;;;;;;;;;;;;;;;-1.26;86.60;102819.34;20535830;28;19977;-67
2022/12/17 13:42:36;;;;;;;;;;;;;;;-1.20;86.54;102812.03;20536821;28;20314;-68
2022/12/17 13:53:07;;;;;;;;;;;;;;;-1.12;86.46;102815.81;20533829;28;20339;-68
2022/12/17 14:03:28;;;;;;;;;;;;;;;-1.15;85.89;102848.69;20533715;28;19935;-68
2022/12/17 14:14:25;;;;;;;;;;;;;;;-1.16;86.11;102849.50;20529501;28;20393;-68
2022/12/17 14:24:46;;;;;;;;;;;;;;;-1.16;86.15;102844.41;20530131;28;19930;-69
2022/12/17 14:35:21;;;;;;;;;;;;;;;-1.11;87.15;102855.66;20558034;28;19930;-69
2022/12/17 14:56:32;;;;;;;;;;;;;;;-1.15;86.31;102869.00;20540524;28;19930;-68
2022/12/17 15:06:54;;;;;;;;;;;;;;;-1.15;86.51;102873.19;20525873;28;19926;-68
2022/12/17 15:17:16;;;;;;;;;;;;;;;-1.20;86.59;102864.47;20554889;28;19926;-69
2022/12/17 15:27:37;;;;;;;;;;;;;;;-1.23;86.00;102875.34;20524620;28;19927;-68
2022/12/17 15:37:58;;;;;;;;;;;;;;;-1.24;85.93;102872.72;20523851;28;19931;-69
2022/12/17 15:48:22;;;;;;;;;;;;;;;-1.22;86.34;102892.34;20554647;28;20428;-69
2022/12/17 15:58:43;;;;;;;;;;;;;;;-1.37;86.23;102886.47;20530329;28;19954;-68
2022/12/17 16:09:04;;;;;;;;;;;;;;;-1.35;86.07;102887.44;20553390;28;19926;-68
2022/12/17 16:19:26;;;;;;;;;;;;;;;-1.39;85.90;102893.13;20547161;28;20002;-68
2022/12/17 16:29:47;;;;;;;;;;;;;;;-1.39;86.62;102902.44;20553811;28;19934;-69
2022/12/17 16:40:09;;;;;;;;;;;;;;;-1.39;86.09;102898.22;20533744;28;19930;-67
2022/12/17 16:50:30;;;;;;;;;;;;;;;-1.45;86.18;102897.91;20540082;28;19985;-67
2022/12/17 17:00:55;;;;;;;;;;;;;;;-1.37;86.13;102905.91;20634592;22;20316;-72
2022/12/17 17:11:20;;;;;;;;;;;;;;;-1.50;86.38;102914.53;20651408;28;19925;-72
2022/12/17 17:21:46;;;;;;;;;;;;;;;-1.58;85.98;102915.84;20647353;28;20048;-70
2022/12/17 17:32:07;;;;;;;;;;;;;;;-1.57;85.72;102939.50;20654433;28;19930;-70
2022/12/17 17:42:32;;;;;;;;;;;;;;;-1.65;85.96;102940.78;20652249;28;19957;-71
2022/12/17 17:52:53;;;;;;;;;;;;;;;-1.70;85.97;102960.84;20639701;28;19930;-71
2022/12/17 18:03:14;;;;;;;;;;;;;;;-1.73;86.18;102960.69;20649526;28;19969;-70
2022/12/17 18:13:54;;;;;;;;;;;;;;;-1.74;85.81;102964.00;20624447;28;19925;-70
2022/12/17 18:24:17;;;;;;;;;;;;;;;-1.70;86.26;102973.50;20659763;28;19925;-70
2022/12/17 18:34:39;;;;;;;;;;;;;;;-1.70;85.79;102978.59;20642541;28;19929;-70
2022/12/17 18:45:00;;;;;;;;;;;;;;;-1.81;85.47;102983.91;20637985;28;19969;-71
2022/12/17 18:55:22;;;;;;;;;;;;;;;-1.99;85.74;102975.25;20637602;28;19972;-70
2022/12/17 19:05:43;;;;;;;;;;;;;;;-2.11;85.60;103008.44;20622824;28;20369;-71
2022/12/17 19:16:11;;;;;;;;;;;;;;;-2.23;85.93;103012.78;20625994;28;20274;-71
2022/12/17 19:26:32;;;;;;;;;;;;;;;-2.19;86.21;103017.25;20647664;28;19926;-70
2022/12/17 19:36:54;;;;;;;;;;;;;;;-2.08;85.94;103016.19;20631669;28;19925;-70
2022/12/17 19:47:15;;;;;;;;;;;;;;;-1.96;86.02;103027.03;20638540;28;20030;-70
2022/12/17 19:57:37;;;;;;;;;;;;;;;-2.03;85.62;103030.00;20646927;28;19938;-70
2022/12/17 20:07:58;;;;;;;;;;;;;;;-2.00;85.46;103022.56;20644788;28;19934;-71
2022/12/17 20:18:19;;;;;;;;;;;;;;;-1.99;85.17;103029.38;20634954;28;19973;-71
2022/12/17 20:28:41;;;;;;;;;;;;;;;-2.16;85.67;103032.63;20627730;28;19937;-70
2022/12/17 20:39:03;;;;;;;;;;;;;;;-2.10;85.74;103035.50;20664167;28;19936;-70
2022/12/17 20:49:24;;;;;;;;;;;;;;;-2.26;85.40;103046.47;20654966;28;19930;-70
2022/12/17 20:59:46;;;;;;;;;;;;;;;-2.21;85.45;103034.03;20646953;28;19999;-70
2022/12/17 21:10:07;;;;;;;;;;;;;;;-2.23;85.55;103049.16;20645261;28;19930;-70
2022/12/17 21:20:29;;;;;;;;;;;;;;;-2.31;85.65;103059.66;20659495;28;20351;-70
2022/12/17 21:30:51;;;;;;;;;;;;;;;-2.30;85.62;103064.81;20650708;28;19981;-70
2022/12/17 21:41:13;;;;;;;;;;;;;;;-2.46;85.40;103091.69;20650254;28;19932;-71
2022/12/17 21:51:35;;;;;;;;;;;;;;;-2.44;85.57;103080.88;20643765;28;19929;-70
2022/12/17 22:01:56;;;;;;;;;;;;;;;-2.41;85.56;103070.91;20641836;28;19988;-70
2022/12/17 22:22:59;;;;;;;;;;;;;;;-2.43;85.24;103069.94;20639913;28;19929;-70
2022/12/17 22:33:21;;;;;;;;;;;;;;;-2.45;85.13;103093.44;20654397;28;20376;-70
2022/12/17 22:44:03;;;;;;;;;;;;;;;-2.55;85.52;103097.09;20641653;28;20450;-70
2022/12/17 22:54:44;;;;;;;;;;;;;;;-2.55;85.98;103081.03;20640585;28;20013;-70
2022/12/17 23:05:06;;;;;;;;;;;;;;;-2.38;85.79;103080.38;20640313;28;20032;-70
2022/12/17 23:15:35;;;;;;;;;;;;;;;-2.53;85.07;103079.47;20639349;28;19985;-70
2022/12/17 23:25:57;;;;;;;;;;;;;;;-2.52;85.82;103091.31;20646968;23;21021;-63
2022/12/17 23:36:19;;;;;;;;;;;;;;;-2.51;85.00;103108.28;20612077;28;19995;-62
2022/12/17 23:46:41;;;;;;;;;;;;;;;-2.65;85.63;103120.13;20629579;28;20389;-63
2022/12/17 23:57:02;;;;;;;;;;;;;;;-2.70;85.65;103123.16;20636024;28;20857;-62
